Time;durP1;ratioP1;P1;durP2;ratioP2;P2;SDS_P1;SDS_P2;PMS_P1;PMS_P2;Temp;Humidity;BMP_temperature;BMP_pressure;BME280_temperature;BME280_humidity;BME280_pressure;Samples;Min_cycle;Max_cycle;Signal;HPM_P1;HPM_P2
2021/08/10 00:01:54;;;;;;;11.15;5.85;;;13.60;99.90;;;;;;5038641;28;20036;-82
2021/08/10 00:04:19;;;;;;;8.00;6.00;;;13.60;99.90;;;;;;5043772;28;20030;-80
2021/08/10 00:06:45;;;;;;;11.57;5.63;;;13.60;99.90;;;;;;5055130;28;20025;-82
2021/08/10 00:09:11;;;;;;;9.15;5.38;;;13.60;99.90;;;;;;5056144;28;20029;-83
2021/08/10 00:11:36;;;;;;;12.20;5.53;;;13.60;99.90;;;;;;5054348;28;20029;-80
2021/08/10 00:14:02;;;;;;;11.73;6.13;;;13.60;99.90;;;;;;5055210;28;20025;-82
2021/08/10 00:16:28;;;;;;;7.75;5.22;;;13.50;99.90;;;;;;5054055;28;20075;-83
2021/08/10 00:18:53;;;;;;;9.85;5.63;;;13.50;99.90;;;;;;5054095;28;20048;-82
2021/08/10 00:21:19;;;;;;;11.63;6.22;;;13.50;99.90;;;;;;5054962;28;20025;-81
2021/08/10 00:23:45;;;;;;;9.27;5.78;;;13.50;99.90;;;;;;5053107;28;20345;-81
2021/08/10 00:26:13;;;;;;;7.65;5.53;;;13.40;99.90;;;;;;5052169;28;20025;-80
2021/08/10 00:28:39;;;;;;;11.85;5.57;;;13.30;99.90;;;;;;5052849;28;20025;-81
2021/08/10 00:31:04;;;;;;;8.00;5.63;;;13.20;99.90;;;;;;5053888;28;20040;-79
2021/08/10 00:33:30;;;;;;;15.63;6.10;;;13.50;99.90;;;;;;5054575;28;20316;-80
2021/08/10 00:35:56;;;;;;;7.82;6.47;;;13.20;99.90;;;;;;5051910;28;20021;-81
2021/08/10 00:38:21;;;;;;;7.03;5.88;;;13.20;99.90;;;;;;5063044;28;20044;-77
2021/08/10 00:40:49;;;;;;;7.70;5.97;;;13.10;99.90;;;;;;5073813;28;20095;-78
2021/08/10 00:43:35;;;;;;;11.23;5.97;;;13.10;99.90;;;;;;5073835;28;20045;-78
2021/08/10 00:46:02;;;;;;;8.40;5.80;;;13.10;99.90;;;;;;5069664;28;20021;-84
2021/08/10 00:48:28;;;;;;;9.05;6.13;;;13.00;99.90;;;;;;5058625;28;20028;-83
2021/08/10 00:50:55;;;;;;;8.02;5.70;;;13.00;99.90;;;;;;5071998;28;20076;-79
2021/08/10 00:53:21;;;;;;;10.00;5.30;;;13.00;99.90;;;;;;5075447;28;20465;-80
2021/08/10 00:55:47;;;;;;;7.25;5.50;;;13.00;99.90;;;;;;5072678;28;20044;-80
2021/08/10 00:58:14;;;;;;;8.93;5.50;;;12.90;99.90;;;;;;5075560;28;20033;-77
2021/08/10 01:00:40;;;;;;;10.23;6.07;;;12.90;99.90;;;;;;5076987;28;20021;-77
2021/08/10 01:03:05;;;;;;;12.50;5.93;;;12.90;99.90;;;;;;5075341;28;20032;-79
2021/08/10 01:05:31;;;;;;;12.18;6.28;;;12.90;99.90;;;;;;5054693;28;20030;-77
2021/08/10 01:08:22;;;;;;;7.30;5.32;;;12.90;99.90;;;;;;5042427;28;20033;-79
2021/08/10 01:11:04;;;;;;;11.20;5.35;;;12.90;99.90;;;;;;5041130;28;20037;-82
2021/08/10 01:13:38;;;;;;;6.28;5.53;;;12.90;99.90;;;;;;5041222;28;20197;-83
2021/08/10 01:16:39;;;;;;;9.70;5.95;;;12.90;99.90;;;;;;5055871;28;20026;-79
2021/08/10 01:19:25;;;;;;;12.23;6.55;;;12.80;99.90;;;;;;5055984;28;20052;-80
2021/08/10 01:21:55;;;;;;;11.27;6.07;;;12.70;99.90;;;;;;5046373;28;20067;-81
2021/08/10 01:24:22;;;;;;;8.90;5.32;;;12.70;99.90;;;;;;5037684;28;20037;-84
2021/08/10 01:27:05;;;;;;;11.18;5.97;;;12.60;99.90;;;;;;5051230;28;20025;-77
2021/08/10 01:29:46;;;;;;;7.03;5.95;;;12.60;99.90;;;;;;5056879;28;20032;-79
2021/08/10 01:32:12;;;;;;;9.20;6.43;;;12.60;99.90;;;;;;5056891;28;20473;-80
2021/08/10 01:34:43;;;;;;;9.38;5.63;;;12.70;99.90;;;;;;5045819;28;20038;-84
2021/08/10 01:37:14;;;;;;;12.00;5.53;;;12.60;99.90;;;;;;5038435;28;20116;-81
2021/08/10 01:39:42;;;;;;;10.65;6.28;;;12.70;99.90;;;;;;5038352;28;20029;-83
2021/08/10 01:42:09;;;;;;;9.45;5.55;;;12.70;99.90;;;;;;5039111;28;20036;-81
2021/08/10 01:44:36;;;;;;;12.02;6.82;;;12.80;99.90;;;;;;5036072;28;20030;-79
2021/08/10 01:47:03;;;;;;;8.50;5.90;;;12.80;99.90;;;;;;5036438;28;20033;-82
2021/08/10 01:49:31;;;;;;;11.50;6.20;;;12.80;99.90;;;;;;5036078;28;20040;-82
2021/08/10 01:51:58;;;;;;;8.40;5.85;;;12.80;99.90;;;;;;5037328;28;20080;-83
2021/08/10 01:54:26;;;;;;;10.55;6.32;;;12.70;99.90;;;;;;5035262;28;20044;-78
2021/08/10 01:56:52;;;;;;;7.75;5.80;;;12.70;99.90;;;;;;5036629;28;20026;-81
2021/08/10 01:59:19;;;;;;;8.90;6.63;;;12.60;99.90;;;;;;5037520;28;20528;-82
2021/08/10 02:01:46;;;;;;;7.25;6.03;;;12.60;99.90;;;;;;5037087;28;20018;-82
2021/08/10 02:04:14;;;;;;;7.97;5.95;;;12.60;99.90;;;;;;5036317;28;20040;-80
2021/08/10 02:06:41;;;;;;;13.38;6.55;;;12.60;99.90;;;;;;5053627;28;20083;-82
2021/08/10 02:09:06;;;;;;;12.48;6.47;;;12.60;99.90;;;;;;5055536;28;20318;-81
2021/08/10 02:11:34;;;;;;;11.80;6.72;;;12.60;99.90;;;;;;5054517;28;20460;-83
2021/08/10 02:14:01;;;;;;;9.55;6.30;;;12.60;99.90;;;;;;5053648;28;20028;-79
2021/08/10 02:16:28;;;;;;;8.23;5.63;;;12.60;99.90;;;;;;5054712;28;20021;-83
2021/08/10 02:18:54;;;;;;;9.27;7.05;;;12.50;99.90;;;;;;5054423;28;20535;-82
2021/08/10 02:21:46;;;;;;;11.10;6.90;;;12.50;99.90;;;;;;5054357;28;20025;-81
2021/08/10 02:24:23;;;;;;;;;;;12.50;99.90;;;;;;5052862;28;20125;-79
2021/08/10 02:26:59;;;;;;;12.65;6.63;;;12.40;99.90;;;;;;5054256;28;19950;-79
2021/08/10 02:29:30;;;;;;;11.20;7.10;;;12.50;99.90;;;;;;5053250;28;20021;-82
2021/08/10 02:31:56;;;;;;;19.00;6.65;;;12.50;99.90;;;;;;5053072;28;20025;-81
2021/08/10 02:34:23;;;;;;;8.63;6.65;;;12.40;99.90;;;;;;5054616;28;20105;-81
2021/08/10 02:36:54;;;;;;;11.05;6.45;;;12.40;99.90;;;;;;5056143;28;20021;-79
2021/08/10 02:39:22;;;;;;;14.95;6.40;;;12.40;99.90;;;;;;5063655;28;20090;-81
2021/08/10 02:41:49;;;;;;;9.82;6.95;;;12.40;99.90;;;;;;5055821;28;20056;-83
2021/08/10 02:44:15;;;;;;;11.80;6.72;;;12.30;99.90;;;;;;5053510;28;20163;-82
2021/08/10 02:46:41;;;;;;;13.60;6.32;;;12.30;99.90;;;;;;5055294;28;20477;-81
2021/08/10 02:49:10;;;;;;;9.13;6.28;;;12.40;99.90;;;;;;5055966;28;20107;-80
2021/08/10 02:51:37;;;;;;;9.77;6.13;;;12.40;99.90;;;;;;5053953;28;20082;-81
2021/08/10 02:54:04;;;;;;;10.18;6.32;;;12.40;99.90;;;;;;5052984;28;20032;-80
2021/08/10 02:56:36;;;;;;;9.50;5.95;;;12.40;99.90;;;;;;5051583;28;20481;-82
2021/08/10 02:59:22;;;;;;;7.63;6.60;;;12.30;99.90;;;;;;5050425;28;20064;-81
2021/08/10 03:02:00;;;;;;;13.45;7.93;;;12.30;99.90;;;;;;5051975;28;20029;-80
2021/08/10 03:04:30;;;;;;;8.95;6.40;;;12.20;99.90;;;;;;5050385;28;20021;-81
2021/08/10 03:06:56;;;;;;;10.05;6.90;;;12.20;99.90;;;;;;5050947;28;20032;-78
2021/08/10 03:09:23;;;;;;;10.13;6.32;;;12.30;99.90;;;;;;5050348;28;20467;-79
2021/08/10 03:11:51;;;;;;;10.52;5.95;;;12.20;99.90;;;;;;5052030;28;20029;-80
2021/08/10 03:14:17;;;;;;;13.80;6.25;;;12.30;99.90;;;;;;5050475;28;20039;-78
2021/08/10 03:16:46;;;;;;;15.00;6.07;;;12.30;99.90;;;;;;5051183;28;20017;-81
2021/08/10 03:19:13;;;;;;;7.65;6.47;;;12.30;99.90;;;;;;5053521;28;20052;-79
2021/08/10 03:21:42;;;;;;;9.85;6.45;;;12.30;99.90;;;;;;5052676;28;20035;-81
2021/08/10 03:24:09;;;;;;;10.10;6.10;;;12.30;99.90;;;;;;5052475;28;20028;-78
2021/08/10 03:26:36;;;;;;;7.63;6.07;;;12.20;99.90;;;;;;5053539;28;20112;-83
2021/08/10 03:29:03;;;;;;;9.85;6.75;;;12.20;99.90;;;;;;5053499;28;20116;-82
2021/08/10 03:31:30;;;;;;;10.02;6.22;;;12.20;99.90;;;;;;5053320;28;20489;-81
2021/08/10 03:33:56;;;;;;;9.82;5.95;;;12.20;99.90;;;;;;5053451;28;20362;-81
2021/08/10 03:36:25;;;;;;;10.85;7.22;;;12.20;99.90;;;;;;5038023;28;20025;-80
2021/08/10 03:38:55;;;;;;;10.48;6.13;;;12.20;99.90;;;;;;5035750;28;20022;-83
2021/08/10 03:41:23;;;;;;;8.27;6.07;;;12.20;99.90;;;;;;5034186;28;20047;-81
2021/08/10 03:43:49;;;;;;;11.70;6.13;;;12.10;99.90;;;;;;5034121;28;20095;-81
2021/08/10 03:46:15;;;;;;;8.13;6.07;;;12.10;99.90;;;;;;5035034;28;20025;-79
2021/08/10 03:48:43;;;;;;;14.35;7.00;;;12.10;99.90;;;;;;5032122;28;20032;-82
2021/08/10 03:51:11;;;;;;;12.35;7.00;;;12.10;99.90;;;;;;5029287;28;20052;-81
2021/08/10 03:53:37;;;;;;;10.07;6.57;;;12.10;99.90;;;;;;5043874;28;20034;-77
2021/08/10 03:56:03;;;;;;;9.77;7.38;;;12.10;99.90;;;;;;5041862;28;20032;-81
2021/08/10 03:58:34;;;;;;;11.52;6.88;;;12.00;99.90;;;;;;5034772;28;20549;-83
2021/08/10 04:01:01;;;;;;;11.77;6.80;;;12.00;99.90;;;;;;5039606;28;20053;-79
2021/08/10 04:03:31;;;;;;;12.05;6.65;;;11.90;99.90;;;;;;5035623;28;20030;-83
2021/08/10 04:05:59;;;;;;;13.90;7.25;;;11.90;99.90;;;;;;5033902;28;20055;-80
2021/08/10 04:08:27;;;;;;;12.85;7.15;;;12.00;99.90;;;;;;5039279;28;20021;-82
2021/08/10 04:10:53;;;;;;;10.50;6.88;;;12.00;99.90;;;;;;5052479;28;20033;-82
2021/08/10 04:13:20;;;;;;;14.55;7.88;;;12.00;99.90;;;;;;5053694;28;20445;-81
2021/08/10 04:15:58;;;;;;;11.00;7.13;;;12.10;99.90;;;;;;5054753;28;20408;-82
2021/08/10 04:18:24;;;;;;;8.52;7.05;;;12.10;99.90;;;;;;5053777;28;20029;-82
2021/08/10 04:20:52;;;;;;;8.15;6.53;;;12.10;99.90;;;;;;5052573;28;20025;-83
2021/08/10 04:23:19;;;;;;;11.15;7.15;;;12.00;99.90;;;;;;5041794;28;20040;-86
2021/08/10 04:25:45;;;;;;;10.45;6.47;;;12.10;99.90;;;;;;5054443;28;20101;-85
2021/08/10 04:28:12;;;;;;;9.70;7.32;;;12.20;99.90;;;;;;5040657;28;20243;-86
2021/08/10 04:30:39;;;;;;;9.88;7.38;;;12.30;99.90;;;;;;5059138;28;20021;-85
2021/08/10 04:33:06;;;;;;;10.88;6.93;;;12.40;99.90;;;;;;5066272;28;20029;-85
2021/08/10 04:35:32;;;;;;;7.35;6.50;;;12.50;99.90;;;;;;5056348;28;20017;-86
2021/08/10 04:37:58;;;;;;;9.77;6.40;;;12.60;99.90;;;;;;5057943;28;20021;-82
2021/08/10 04:40:27;;;;;;;9.98;6.20;;;12.60;99.90;;;;;;5057038;28;20120;-86
2021/08/10 04:42:56;;;;;;;9.02;6.18;;;12.70;99.90;;;;;;5040364;28;20036;-86
2021/08/10 04:45:22;;;;;;;7.93;6.10;;;12.80;99.90;;;;;;5038611;28;20032;-85
2021/08/10 04:47:48;;;;;;;9.10;6.20;;;12.70;99.90;;;;;;5041701;28;20018;-85
2021/08/10 04:50:14;;;;;;;7.32;5.97;;;12.70;99.90;;;;;;5039346;28;20401;-83
2021/08/10 04:52:39;;;;;;;9.65;6.00;;;12.70;99.90;;;;;;5040566;28;20025;-85
2021/08/10 04:55:07;;;;;;;6.38;5.40;;;12.80;99.90;;;;;;5040456;28;20454;-85
2021/08/10 04:57:33;;;;;;;9.25;5.55;;;12.60;99.90;;;;;;5040641;28;20029;-83
2021/08/10 04:59:59;;;;;;;6.50;4.60;;;12.50;99.90;;;;;;5037763;28;20527;-78
2021/08/10 05:02:24;;;;;;;6.35;4.82;;;12.60;99.90;;;;;;5037329;28;20029;-81
2021/08/10 05:04:50;;;;;;;5.05;4.47;;;12.70;99.90;;;;;;5036653;28;20033;-82
2021/08/10 05:07:16;;;;;;;5.82;4.72;;;12.80;99.90;;;;;;5047871;28;20029;-82
2021/08/10 05:09:42;;;;;;;5.38;4.60;;;12.90;99.90;;;;;;5058553;28;20108;-81
2021/08/10 05:12:08;;;;;;;7.95;4.50;;;13.00;99.90;;;;;;5056531;28;20106;-85
2021/08/10 05:14:36;;;;;;;5.90;4.28;;;13.00;99.90;;;;;;5043694;28;20036;-88
2021/08/10 05:17:01;;;;;;;7.63;3.75;;;13.00;99.90;;;;;;5053294;28;20024;-84
2021/08/10 05:19:27;;;;;;;4.90;3.78;;;13.00;99.90;;;;;;5069092;28;20041;-82
2021/08/10 05:21:53;;;;;;;7.00;3.83;;;12.70;99.90;;;;;;5073520;28;20009;-83
2021/08/10 05:24:19;;;;;;;5.97;3.75;;;12.60;99.90;;;;;;5056236;28;20097;-83
2021/08/10 05:26:44;;;;;;;8.35;4.47;;;12.60;99.90;;;;;;5057480;28;20010;-86
2021/08/10 05:29:10;;;;;;;8.73;4.50;;;12.70;99.90;;;;;;5056889;28;20085;-84
2021/08/10 05:31:36;;;;;;;4.80;4.40;;;12.90;99.90;;;;;;5056928;28;20025;-85
2021/08/10 05:34:01;;;;;;;6.68;4.13;;;13.20;99.90;;;;;;5056196;28;20052;-84
2021/08/10 05:36:27;;;;;;;7.53;4.00;;;13.30;99.90;;;;;;5057239;28;20014;-85
2021/08/10 05:38:54;;;;;;;9.38;4.10;;;13.30;99.90;;;;;;5057815;28;20028;-85
2021/08/10 05:41:21;;;;;;;6.40;3.90;;;13.30;99.90;;;;;;5056935;28;20010;-84
2021/08/10 05:43:48;;;;;;;6.80;4.20;;;13.30;99.90;;;;;;5056166;28;20032;-86
2021/08/10 05:46:14;;;;;;;7.80;4.30;;;13.40;99.90;;;;;;5074259;28;20035;-84
2021/08/10 05:48:40;;;;;;;7.25;4.63;;;13.50;99.90;;;;;;5078747;28;20024;-81
2021/08/10 05:51:06;;;;;;;11.98;4.22;;;13.50;99.90;;;;;;5074575;28;20025;-82
2021/08/10 05:53:32;;;;;;;6.28;4.10;;;13.70;99.90;;;;;;5077092;28;20084;-81
2021/08/10 05:55:59;;;;;;;6.60;4.70;;;13.80;99.90;;;;;;5076294;28;20032;-83
2021/08/10 05:58:24;;;;;;;6.40;4.07;;;13.80;99.90;;;;;;5077440;28;20021;-81
2021/08/10 06:00:50;;;;;;;6.57;4.55;;;13.80;99.90;;;;;;5064227;28;20082;-83
2021/08/10 06:03:16;;;;;;;5.10;3.63;;;13.80;99.90;;;;;;5077385;28;20013;-82
2021/08/10 06:05:42;;;;;;;8.00;3.92;;;13.80;99.90;;;;;;5068809;28;20041;-85
2021/08/10 06:08:07;;;;;;;7.15;4.30;;;13.90;99.90;;;;;;5057909;28;20481;-86
2021/08/10 06:10:33;;;;;;;6.20;3.67;;;14.10;99.90;;;;;;5056415;28;20029;-85
2021/08/10 06:12:59;;;;;;;5.55;3.92;;;14.00;99.90;;;;;;5074167;28;20036;-82
2021/08/10 06:15:25;;;;;;;7.60;3.80;;;14.10;99.90;;;;;;5076637;28;20025;-82
2021/08/10 06:17:50;;;;;;;6.40;4.00;;;14.10;99.90;;;;;;5064554;28;20018;-82
2021/08/10 06:20:16;;;;;;;6.95;3.47;;;14.10;99.90;;;;;;5040684;28;20030;-84
2021/08/10 06:22:42;;;;;;;8.00;3.83;;;14.40;99.90;;;;;;5040397;28;20096;-86
2021/08/10 06:25:08;;;;;;;6.03;3.63;;;14.30;99.90;;;;;;5042802;28;20451;-84
2021/08/10 06:27:34;;;;;;;4.78;3.47;;;14.40;99.90;;;;;;5044870;28;20020;-82
2021/08/10 06:30:00;;;;;;;5.55;3.75;;;14.50;99.90;;;;;;5071042;28;20010;-83
2021/08/10 06:32:25;;;;;;;5.53;3.38;;;14.60;99.90;;;;;;5056542;28;20026;-82
2021/08/10 06:34:51;;;;;;;5.97;3.55;;;14.70;99.90;;;;;;5060774;28;20075;-84
2021/08/10 06:37:17;;;;;;;4.75;3.45;;;15.00;99.90;;;;;;5047280;28;20026;-86
2021/08/10 06:39:42;;;;;;;8.45;3.70;;;15.30;99.90;;;;;;5050741;28;20197;-85
2021/08/10 06:42:08;;;;;;;4.72;3.70;;;15.70;99.90;;;;;;5055251;28;20017;-83
2021/08/10 06:44:34;;;;;;;7.30;3.20;;;15.70;99.90;;;;;;5051855;28;20035;-82
2021/08/10 06:47:00;;;;;;;4.03;3.10;;;15.70;99.90;;;;;;5065085;28;20049;-82
2021/08/10 06:49:27;;;;;;;4.55;3.13;;;15.50;99.90;;;;;;5058023;28;20032;-86
2021/08/10 06:51:53;;;;;;;5.05;3.28;;;15.40;99.90;;;;;;5054322;28;20048;-82
2021/08/10 06:54:19;;;;;;;3.42;3.05;;;15.70;99.90;;;;;;5063033;28;20041;-81
2021/08/10 06:56:45;;;;;;;7.00;3.05;;;15.60;99.90;;;;;;5066975;28;20025;-84
2021/08/10 06:59:10;;;;;;;7.63;3.25;;;15.50;99.90;;;;;;5069972;28;20028;-81
2021/08/10 07:01:36;;;;;;;10.27;3.42;;;15.80;99.90;;;;;;5041120;28;20025;-80
2021/08/10 07:04:02;;;;;;;6.95;3.30;;;16.10;99.90;;;;;;5049377;28;20537;-84
2021/08/10 07:06:27;;;;;;;4.25;2.88;;;16.50;99.90;;;;;;5031243;28;20052;-83
2021/08/10 07:08:56;;;;;;;5.38;2.88;;;16.80;99.90;;;;;;5032702;28;20018;-85
2021/08/10 07:11:21;;;;;;;7.10;3.65;;;17.10;99.90;;;;;;5033951;28;20213;-84
2021/08/10 07:13:47;;;;;;;6.82;3.60;;;17.40;99.90;;;;;;5034448;28;20060;-86
2021/08/10 07:16:13;;;;;;;4.43;2.90;;;17.50;99.90;;;;;;5034231;28;20032;-84
2021/08/10 07:18:39;;;;;;;9.63;3.40;;;17.50;99.90;;;;;;5034230;28;20060;-82
2021/08/10 07:21:05;;;;;;;5.78;2.80;;;17.80;99.90;;;;;;5033819;28;20022;-83
2021/08/10 07:23:30;;;;;;;3.05;2.75;;;17.80;99.90;;;;;;5034935;28;20469;-82
2021/08/10 07:25:56;;;;;;;4.38;3.10;;;17.70;99.90;;;;;;5034071;28;20125;-84
2021/08/10 07:28:22;;;;;;;3.60;2.63;;;17.70;99.90;;;;;;5033135;28;20037;-84
2021/08/10 07:30:48;;;;;;;7.43;2.80;;;18.00;99.90;;;;;;5035448;28;20041;-84
2021/08/10 07:33:13;;;;;;;8.77;3.15;;;17.60;99.90;;;;;;5033317;28;20489;-82
2021/08/10 07:35:40;;;;;;;5.43;3.17;;;17.30;99.90;;;;;;5033737;28;20485;-85
2021/08/10 07:38:06;;;;;;;4.13;3.17;;;17.10;99.90;;;;;;5033013;28;20018;-83
2021/08/10 07:40:32;;;;;;;4.75;3.03;;;17.20;99.90;;;;;;5039690;28;20021;-85
2021/08/10 07:42:58;;;;;;;3.47;2.80;;;17.80;99.90;;;;;;5053067;28;20022;-84
2021/08/10 07:45:24;;;;;;;4.05;2.92;;;18.20;99.90;;;;;;5070231;28;20096;-82
2021/08/10 07:47:49;;;;;;;4.05;2.90;;;18.70;99.90;;;;;;5061336;28;20405;-82
2021/08/10 07:50:16;;;;;;;6.43;2.78;;;18.90;99.90;;;;;;5054465;28;20047;-85
2021/08/10 07:52:41;;;;;;;3.00;2.40;;;19.50;99.90;;;;;;5054588;28;20032;-86
2021/08/10 07:55:08;;;;;;;5.85;2.58;;;19.60;99.90;;;;;;5053901;28;20033;-84
2021/08/10 07:57:35;;;;;;;4.00;2.28;;;19.50;99.90;;;;;;5057208;28;20032;-83
2021/08/10 08:00:00;;;;;;;3.22;2.35;;;19.00;99.90;;;;;;5058745;28;20021;-86
2021/08/10 08:02:26;;;;;;;6.07;2.63;;;19.10;99.90;;;;;;5057867;28;20017;-83
2021/08/10 08:04:52;;;;;;;3.45;2.08;;;19.20;99.90;;;;;;5059405;28;20093;-82
2021/08/10 08:07:17;;;;;;;2.53;2.25;;;19.30;99.90;;;;;;5073697;28;20029;-83
2021/08/10 08:09:43;;;;;;;5.03;2.53;;;19.50;99.90;;;;;;5061333;28;20068;-84
2021/08/10 08:12:09;;;;;;;4.32;2.60;;;19.70;99.90;;;;;;5056414;28;20116;-83
2021/08/10 08:14:34;;;;;;;5.53;2.50;;;19.80;99.90;;;;;;5054493;28;20025;-84
2021/08/10 08:17:00;;;;;;;5.13;3.13;;;19.70;99.90;;;;;;5054166;28;20481;-83
2021/08/10 08:19:26;;;;;;;2.97;2.28;;;20.10;99.90;;;;;;5053002;28;20478;-85
2021/08/10 08:21:51;;;;;;;6.05;2.63;;;20.30;99.90;;;;;;5048800;28;20029;-78
2021/08/10 08:24:17;;;;;;;4.72;2.67;;;20.30;99.90;;;;;;5043713;28;20041;-78
2021/08/10 08:26:43;;;;;;;2.78;2.20;;;20.80;99.90;;;;;;5044903;28;20029;-83
2021/08/10 08:29:09;;;;;;;3.40;1.90;;;20.50;99.90;;;;;;5032714;28;20025;-82
2021/08/10 08:31:35;;;;;;;5.70;2.80;;;20.40;99.90;;;;;;5045902;28;20060;-82
2021/08/10 08:34:00;;;;;;;4.43;2.15;;;20.80;99.90;;;;;;5042876;28;20045;-83
2021/08/10 08:36:26;;;;;;;3.88;2.42;;;21.60;99.90;;;;;;5045129;28;20045;-82
2021/08/10 08:38:52;;;;;;;4.78;2.40;;;22.00;99.90;;;;;;5036910;28;20543;-82
2021/08/10 08:41:20;;;;;;;3.58;1.77;;;22.60;99.90;;;;;;5043140;28;20017;-81
2021/08/10 08:43:45;;;;;;;5.32;2.10;;;22.40;99.90;;;;;;5054508;28;20124;-82
2021/08/10 08:46:15;;;;;;;4.82;2.03;;;21.70;99.90;;;;;;5037097;28;20053;-83
2021/08/10 08:48:45;;;;;;;1.92;1.67;;;21.30;99.90;;;;;;5044370;28;20021;-82
2021/08/10 08:51:11;;;;;;;2.53;2.17;;;21.10;99.90;;;;;;5036258;28;20029;-82
2021/08/10 08:53:52;;;;;;;2.58;2.17;;;20.90;99.90;;;;;;5044343;28;20574;-81
2021/08/10 08:56:20;;;;;;;7.18;2.17;;;21.00;99.90;;;;;;5054899;28;20025;-83
2021/08/10 08:58:46;;;;;;;3.58;2.17;;;21.40;99.90;;;;;;5042237;28;20021;-83
2021/08/10 09:01:13;;;;;;;5.63;2.40;;;21.50;99.90;;;;;;5041659;28;20024;-82
2021/08/10 09:03:39;;;;;;;3.90;2.38;;;22.20;99.90;;;;;;5037849;28;20028;-82
2021/08/10 09:06:04;;;;;;;2.08;1.58;;;22.70;99.90;;;;;;5045381;28;20028;-82
2021/08/10 09:08:32;;;;;;;1.70;1.40;;;22.70;99.90;;;;;;5041719;28;20079;-81
2021/08/10 09:11:04;;;;;;;3.50;1.65;;;22.90;99.90;;;;;;5038347;28;20401;-83
2021/08/10 09:13:30;;;;;;;2.70;1.80;;;22.80;99.90;;;;;;5053220;28;20493;-81
2021/08/10 09:16:05;;;;;;;3.80;1.65;;;22.70;99.90;;;;;;5043927;28;20029;-81
2021/08/10 09:18:36;;;;;;;2.30;1.58;;;22.50;99.90;;;;;;5036866;28;20013;-82
2021/08/10 09:21:10;;;;;;;4.55;2.08;;;22.50;99.90;;;;;;5053180;28;20040;-83
2021/08/10 09:23:45;;;;;;;2.45;1.60;;;22.70;99.90;;;;;;5052813;28;20029;-82
2021/08/10 09:26:14;;;;;;;4.03;1.70;;;23.00;99.90;;;;;;5066339;22;20105;-71
2021/08/10 09:28:41;;;;;;;2.17;1.65;;;22.90;99.90;;;;;;5053287;28;20029;-72
2021/08/10 09:31:34;;;;;;;2.33;1.70;;;23.20;99.90;;;;;;5054573;28;20017;-72
2021/08/10 09:34:03;;;;;;;4.35;2.05;;;22.80;99.90;;;;;;5054596;28;20012;-72
2021/08/10 09:36:29;;;;;;;3.47;1.35;;;23.20;99.90;;;;;;5050127;28;20534;-71
2021/08/10 09:38:57;;;;;;;3.85;1.83;;;23.60;99.90;;;;;;5052572;28;20075;-71
2021/08/10 09:41:23;;;;;;;1.92;1.73;;;23.90;99.90;;;;;;5052922;28;20021;-72
2021/08/10 09:43:50;;;;;;;2.08;1.90;;;23.70;99.90;;;;;;5055225;28;20025;-73
2021/08/10 09:46:18;;;;;;;2.58;1.55;;;23.90;99.90;;;;;;5054700;28;20030;-73
2021/08/10 09:48:49;;;;;;;2.35;1.77;;;24.40;99.90;;;;;;5055357;28;20045;-72
2021/08/10 09:51:24;;;;;;;2.35;1.42;;;24.60;99.90;;;;;;5061560;28;20049;-72
2021/08/10 09:54:01;;;;;;;5.07;1.55;;;25.00;99.90;;;;;;5064976;28;20036;-72
2021/08/10 09:56:50;;;;;;;5.43;1.70;;;25.70;99.90;;;;;;5063453;28;20051;-72
2021/08/10 09:59:36;;;;;;;2.10;1.65;;;26.40;99.90;;;;;;5049547;28;20027;-72
2021/08/10 10:02:03;;;;;;;4.55;1.80;;;26.60;99.90;;;;;;5073268;28;20041;-72
2021/08/10 10:04:31;;;;;;;2.00;1.63;;;25.00;99.90;;;;;;5074394;28;20021;-73
2021/08/10 10:07:11;;;;;;;2.97;1.50;;;25.80;99.90;;;;;;5074154;28;20078;-70
2021/08/10 10:09:40;;;;;;;1.45;1.33;;;26.40;99.90;;;;;;5071372;28;20029;-71
2021/08/10 10:12:07;;;;;;;1.63;1.50;;;26.80;99.90;;;;;;5070478;28;20013;-72
2021/08/10 10:14:33;;;;;;;2.50;1.52;;;27.50;99.90;;;;;;5052126;28;20032;-74
2021/08/10 10:17:02;;;;;;;2.88;2.03;;;28.30;99.30;;;;;;5071683;28;20067;-71
2021/08/10 10:19:29;;;;;;;2.70;1.25;;;29.20;99.20;;;;;;5071122;28;20017;-72
2021/08/10 10:21:58;;;;;;;2.45;1.42;;;30.00;99.00;;;;;;5055254;28;20032;-73
2021/08/10 10:24:25;;;;;;;3.35;1.50;;;29.70;96.60;;;;;;5050656;28;20045;-74
2021/08/10 10:26:58;;;;;;;3.60;1.48;;;29.70;95.00;;;;;;5051459;28;20144;-72
2021/08/10 10:29:26;;;;;;;2.03;1.40;;;30.90;93.60;;;;;;5049422;28;20041;-71
2021/08/10 10:31:52;;;;;;;1.38;1.23;;;29.90;92.60;;;;;;5049549;28;20101;-71
2021/08/10 10:34:18;;;;;;;1.70;1.50;;;29.00;92.90;;;;;;5053057;28;20088;-74
2021/08/10 10:36:46;;;;;;;4.47;1.60;;;28.50;95.50;;;;;;5055013;28;20029;-74
2021/08/10 10:39:19;;;;;;;6.10;1.67;;;28.70;95.80;;;;;;5054261;28;20028;-73
2021/08/10 10:41:46;;;;;;;3.08;1.70;;;28.60;96.40;;;;;;5068382;28;20024;-75
2021/08/10 10:44:12;;;;;;;2.67;1.52;;;28.90;95.30;;;;;;5070638;28;20022;-74
2021/08/10 10:46:39;;;;;;;2.33;1.20;;;29.20;95.40;;;;;;5055177;28;20285;-73
2021/08/10 10:49:09;;;;;;;2.85;1.42;;;29.00;95.90;;;;;;5039716;28;20171;-76
2021/08/10 10:51:38;;;;;;;3.67;1.77;;;29.30;96.30;;;;;;5057192;28;20022;-76
2021/08/10 10:54:22;;;;;;;1.92;1.60;;;29.10;95.00;;;;;;5040207;28;20052;-75
2021/08/10 10:56:48;;;;;;;3.03;1.88;;;28.00;94.80;;;;;;5040071;28;20013;-75
2021/08/10 10:59:24;;;;;;;3.38;1.42;;;27.70;95.00;;;;;;5053006;28;20051;-74
2021/08/10 11:01:51;;;;;;;2.63;1.60;;;28.10;96.30;;;;;;5050001;28;20017;-75
2021/08/10 11:04:17;;;;;;;2.05;1.60;;;28.50;95.20;;;;;;5056797;28;20021;-76
2021/08/10 11:06:48;;;;;;;1.85;1.42;;;29.50;94.50;;;;;;5057210;28;20148;-74
2021/08/10 11:09:38;;;;;;;2.45;1.50;;;30.10;93.60;;;;;;5052394;28;20033;-74
2021/08/10 11:12:24;;;;;;;3.00;1.55;;;30.50;91.90;;;;;;5050984;28;20025;-73
2021/08/10 11:14:50;;;;;;;3.40;1.48;;;30.80;92.50;;;;;;5031122;28;20034;-73
2021/08/10 11:17:17;;;;;;;2.03;1.60;;;30.20;91.80;;;;;;5048768;28;20017;-72
2021/08/10 11:19:45;;;;;;;3.00;1.40;;;30.90;92.00;;;;;;5048173;28;20025;-73
2021/08/10 11:22:17;;;;;;;2.72;1.60;;;30.90;92.10;;;;;;5047169;28;20025;-71
2021/08/10 11:24:56;;;;;;;3.85;2.00;;;31.30;91.00;;;;;;5049833;28;20071;-73
2021/08/10 11:27:34;;;;;;;1.98;1.60;;;30.80;90.70;;;;;;5053382;28;20033;-73
2021/08/10 11:30:03;;;;;;;2.67;1.80;;;30.30;90.00;;;;;;5036764;28;20097;-72
2021/08/10 11:32:35;;;;;;;3.58;1.75;;;30.40;90.50;;;;;;5052856;28;20112;-73
2021/08/10 11:35:34;;;;;;;2.00;1.63;;;30.30;90.10;;;;;;5065869;28;20025;-73
2021/08/10 11:38:13;;;;;;;2.53;1.80;;;30.00;91.50;;;;;;5075463;28;20013;-74
2021/08/10 11:40:59;;;;;;;3.65;2.10;;;29.40;88.40;;;;;;5057282;28;20021;-73
2021/08/10 11:43:52;;;;;;;2.22;1.45;;;29.20;90.90;;;;;;5073892;28;20017;-74
2021/08/10 11:46:22;;;;;;;3.45;2.10;;;29.50;90.60;;;;;;5047464;28;20100;-76
2021/08/10 11:48:56;;;;;;;4.30;2.00;;;29.70;90.60;;;;;;5056448;28;20037;-74
2021/08/10 11:51:28;;;;;;;1.95;1.67;;;30.20;88.80;;;;;;5056870;28;20021;-75
2021/08/10 11:53:55;;;;;;;1.95;1.73;;;30.20;87.80;;;;;;5056853;28;20041;-74
2021/08/10 11:56:25;;;;;;;3.83;1.77;;;29.60;90.30;;;;;;5054759;28;20026;-74
2021/08/10 11:58:51;;;;;;;2.40;1.67;;;29.90;91.60;;;;;;5055086;28;20077;-74
2021/08/10 12:01:18;;;;;;;4.40;1.60;;;29.70;90.80;;;;;;5054328;28;20036;-74
2021/08/10 12:03:44;;;;;;;2.63;2.00;;;29.90;90.30;;;;;;5053551;28;20014;-74
2021/08/10 12:06:11;;;;;;;1.98;1.77;;;29.30;87.40;;;;;;5052632;28;20013;-74
2021/08/10 12:08:37;;;;;;;2.20;2.00;;;29.10;90.80;;;;;;5057605;28;20040;-73
2021/08/10 12:11:03;;;;;;;3.53;1.90;;;28.20;91.50;;;;;;5072786;28;20021;-73
2021/08/10 12:13:29;;;;;;;2.95;2.03;;;27.50;91.50;;;;;;5072246;28;20037;-74
2021/08/10 12:15:55;;;;;;;2.35;1.70;;;27.40;93.70;;;;;;5067736;28;20035;-74
2021/08/10 12:18:23;;;;;;;5.70;1.83;;;27.50;93.20;;;;;;5057492;28;20028;-74
2021/08/10 12:21:15;;;;;;;4.47;2.15;;;27.80;93.00;;;;;;5036038;28;20022;-74
2021/08/10 12:23:44;;;;;;;2.47;2.05;;;28.00;92.70;;;;;;5027514;28;20033;-74
2021/08/10 12:26:15;;;;;;;6.32;2.63;;;27.80;93.40;;;;;;5053203;28;20051;-74
2021/08/10 12:29:00;;;;;;;1.95;1.80;;;27.70;93.20;;;;;;5028978;28;20053;-74
2021/08/10 12:31:27;;;;;;;5.30;2.10;;;27.90;91.90;;;;;;5031855;28;20445;-74
2021/08/10 12:33:56;;;;;;;3.03;2.13;;;27.70;92.50;;;;;;5031575;28;20030;-75
2021/08/10 12:36:22;;;;;;;1.70;1.60;;;27.90;93.10;;;;;;5030812;28;20415;-75
2021/08/10 12:38:50;;;;;;;2.58;2.30;;;28.00;93.00;;;;;;5037575;28;20021;-75
2021/08/10 12:41:25;;;;;;;2.17;1.92;;;28.10;91.40;;;;;;5050506;28;20021;-75
2021/08/10 12:43:52;;;;;;;2.08;1.85;;;28.40;92.50;;;;;;5053654;28;20021;-75
2021/08/10 12:46:32;;;;;;;2.58;1.88;;;28.20;93.00;;;;;;5035650;28;20025;-74
2021/08/10 12:49:07;;;;;;;3.03;2.03;;;28.30;92.70;;;;;;5055007;28;20029;-75
2021/08/10 12:51:55;;;;;;;2.20;2.00;;;28.30;92.40;;;;;;5036725;28;20549;-72
2021/08/10 12:54:22;;;;;;;3.03;1.95;;;28.10;92.20;;;;;;5054156;28;20055;-75